createdAt,value
2019-05-10T00:01:15.525Z,8.37
2019-05-10T00:06:26.913Z,8.07
2019-05-10T00:11:24.081Z,8.43
2019-05-10T00:16:18.423Z,8.05
2019-05-10T00:21:11.988Z,7.67
2019-05-10T00:26:07.433Z,8.00
2019-05-10T00:31:00.999Z,8.18
2019-05-10T00:35:54.892Z,8.35
2019-05-10T00:40:48.419Z,9.90
2019-05-10T00:45:45.222Z,9.98
2019-05-10T00:50:38.790Z,8.85
2019-05-10T00:55:32.378Z,8.83
2019-05-10T01:00:25.946Z,9.30
2019-05-10T01:05:22.069Z,9.55
2019-05-10T01:10:15.732Z,9.85
2019-05-10T01:15:10.565Z,10.28
2019-05-10T01:20:06.854Z,8.83
2019-05-10T01:25:00.361Z,8.43
2019-05-10T01:29:53.937Z,9.00
2019-05-10T01:34:47.522Z,10.05
2019-05-10T01:39:41.045Z,9.25
2019-05-10T01:44:34.613Z,10.30
2019-05-10T01:49:29.139Z,9.20
2019-05-10T01:54:23.625Z,9.50
2019-05-10T01:59:17.460Z,10.85
2019-05-10T02:04:11.026Z,9.38
2019-05-10T02:09:07.197Z,9.73
2019-05-10T02:14:01.601Z,11.45
2019-05-10T02:18:55.157Z,10.25
2019-05-10T02:23:48.753Z,10.15
2019-05-10T02:28:42.311Z,12.07
2019-05-10T02:33:35.899Z,10.30
2019-05-10T02:38:29.448Z,10.78
2019-05-10T02:43:23.279Z,10.53
2019-05-10T02:48:16.874Z,9.93
2019-05-10T02:53:11.189Z,10.27
2019-05-10T02:58:04.903Z,10.15
2019-05-10T03:02:59.306Z,9.60
2019-05-10T03:07:56.056Z,10.28
2019-05-10T03:12:52.527Z,9.08
2019-05-10T03:17:47.326Z,10.95
2019-05-10T03:22:42.646Z,8.95
2019-05-10T03:27:36.650Z,10.50
2019-05-10T03:32:32.187Z,9.00
2019-05-10T03:37:25.968Z,10.45
2019-05-10T03:42:20.434Z,10.30
2019-05-10T03:47:14.007Z,7.97
2019-05-10T03:52:07.626Z,7.50
2019-05-10T03:57:13.203Z,8.28
2019-05-10T04:01:56.738Z,8.54
2019-05-10T04:06:50.366Z,9.70
2019-05-10T04:11:45.082Z,8.28
2019-05-10T04:16:38.666Z,9.70
2019-05-10T04:21:32.225Z,8.45
2019-05-10T04:26:26.072Z,9.28
2019-05-10T04:31:19.633Z,7.70
2019-05-10T04:36:13.233Z,9.18
2019-05-10T04:41:06.773Z,8.98
2019-05-10T04:46:00.402Z,9.23
2019-05-10T04:50:54.319Z,7.53
2019-05-10T04:55:47.934Z,6.53
2019-05-10T05:00:41.505Z,6.83
2019-05-10T05:05:35.070Z,6.28
2019-05-10T05:10:28.653Z,7.20
2019-05-10T05:15:22.212Z,6.97
2019-05-10T05:20:17.052Z,6.15
2019-05-10T05:25:10.786Z,7.80
2019-05-10T05:30:07.536Z,6.08
2019-05-10T05:35:06.841Z,6.62
2019-05-10T05:40:01.424Z,4.65
2019-05-10T05:44:55.140Z,4.78
2019-05-10T05:49:49.596Z,5.83
2019-05-10T05:54:43.088Z,5.78
2019-05-10T05:59:36.647Z,5.58
2019-05-10T06:04:30.240Z,6.05
2019-05-10T06:09:23.715Z,5.55
2019-05-10T06:14:17.241Z,6.62
2019-05-10T06:19:10.714Z,7.47
2019-05-10T06:24:07.473Z,6.40
2019-05-10T06:29:04.199Z,5.75
2019-05-10T06:33:56.106Z,6.75
2019-05-10T06:38:49.668Z,6.17
2019-05-10T06:43:51.029Z,6.40
2019-05-10T06:48:41.828Z,6.37
2019-05-10T06:53:35.305Z,5.40
2019-05-10T06:58:30.433Z,6.80
2019-05-10T07:03:24.333Z,5.43
2019-05-10T07:08:20.498Z,5.35
2019-05-10T07:13:13.649Z,5.28
2019-05-10T07:18:07.164Z,5.75
2019-05-10T07:23:05.982Z,5.85
2019-05-10T07:27:56.144Z,5.56
2019-05-10T07:32:54.467Z,4.60
2019-05-10T07:37:47.798Z,5.10
2019-05-10T07:42:45.616Z,5.30
2019-05-10T07:47:36.700Z,5.37
2019-05-10T07:52:30.256Z,4.60
2019-05-10T07:57:24.744Z,4.58
2019-05-10T08:02:19.009Z,4.50
2019-05-10T08:07:12.499Z,4.95
2019-05-10T08:12:06.346Z,4.55
2019-05-10T08:17:05.897Z,4.55
2019-05-10T08:22:00.782Z,4.75
2019-05-10T08:26:57.180Z,4.55
2019-05-10T08:31:52.425Z,3.90
2019-05-10T08:36:45.796Z,4.80
2019-05-10T08:41:36.181Z,5.53
2019-05-10T08:46:40.588Z,5.65
2019-05-10T08:51:25.992Z,4.44
2019-05-10T08:56:21.652Z,4.23
2019-05-10T09:01:26.164Z,5.40
2019-05-10T09:06:15.890Z,4.33
2019-05-10T09:11:06.962Z,4.20
2019-05-10T09:16:02.407Z,2.98
2019-05-10T09:21:00.369Z,3.52
2019-05-10T09:25:52.673Z,2.22
2019-05-10T09:30:59.385Z,1.90
2019-05-10T09:35:47.039Z,2.30
2019-05-10T09:40:42.599Z,2.58
2019-05-10T09:45:33.075Z,1.80
2019-05-10T09:50:30.553Z,2.08
2019-05-10T09:55:30.239Z,2.30
2019-05-10T10:00:37.863Z,2.20
2019-05-10T10:05:31.241Z,2.33
2019-05-10T10:10:30.125Z,2.08
2019-05-10T10:15:29.862Z,1.77
2019-05-10T10:20:15.287Z,1.60
2019-05-10T10:25:09.089Z,2.33
2019-05-10T10:30:06.452Z,1.85
2019-05-10T10:34:58.201Z,2.17
2019-05-10T10:39:54.390Z,2.30
2019-05-10T10:44:48.321Z,2.35
2019-05-10T10:49:41.948Z,2.20
2019-05-10T10:54:37.515Z,1.93
2019-05-10T10:59:30.706Z,2.10
2019-05-10T11:04:24.547Z,1.47
2019-05-10T11:09:20.589Z,2.60
2019-05-10T11:14:14.809Z,1.50
2019-05-10T11:19:15.293Z,1.85
2019-05-10T11:24:10.503Z,2.27
2019-05-10T11:29:01.369Z,2.47
2019-05-10T11:33:58.740Z,2.65
2019-05-10T11:38:58.471Z,2.62
2019-05-10T11:43:51.639Z,2.62
2019-05-10T11:48:45.457Z,2.70
2019-05-10T11:53:41.408Z,2.00
2019-05-10T11:58:37.658Z,1.80
2019-05-10T12:03:49.017Z,2.45
2019-05-10T12:08:42.488Z,2.27
2019-05-10T12:13:37.257Z,2.47
2019-05-10T12:18:32.506Z,1.82
2019-05-10T12:23:31.215Z,2.10
2019-05-10T12:28:28.488Z,3.35
2019-05-10T12:33:24.293Z,2.65
2019-05-10T12:38:13.785Z,2.37
2019-05-10T12:43:10.945Z,2.10
2019-05-10T12:48:03.950Z,2.47
2019-05-10T12:53:14.053Z,2.60
2019-05-10T12:57:52.726Z,2.30
2019-05-10T13:02:51.054Z,1.87
2019-05-10T13:07:41.561Z,2.20
2019-05-10T13:12:36.911Z,2.30
2019-05-10T13:17:30.919Z,2.15
2019-05-10T13:22:24.457Z,1.98
2019-05-10T13:27:18.036Z,2.25
2019-05-10T13:32:14.772Z,2.02
2019-05-10T13:37:06.893Z,2.93
2019-05-10T13:42:03.296Z,2.92
2019-05-10T13:46:55.593Z,2.10
2019-05-10T13:51:49.404Z,2.25
2019-05-10T13:56:45.452Z,2.20
2019-05-10T14:01:38.200Z,1.70
2019-05-10T14:06:31.679Z,1.80
2019-05-10T14:11:25.377Z,2.40
2019-05-10T14:16:22.447Z,2.70
2019-05-10T14:21:14.306Z,2.20
2019-05-10T14:26:09.302Z,2.58
2019-05-10T14:31:03.051Z,2.33
2019-05-10T14:36:00.933Z,2.50
2019-05-10T14:40:52.674Z,1.98
2019-05-10T14:45:46.606Z,1.90
2019-05-10T14:50:40.157Z,2.17
2019-05-10T14:55:36.851Z,2.10
2019-05-10T15:00:28.901Z,1.90
2019-05-10T15:05:22.732Z,2.00
2019-05-10T15:10:16.684Z,2.80
2019-05-10T15:15:10.588Z,1.80
2019-05-10T15:20:06.893Z,2.43
2019-05-10T15:25:00.583Z,1.70
2019-05-10T15:29:58.629Z,2.35
2019-05-10T15:35:05.213Z,2.75
2019-05-10T15:39:45.089Z,2.00
2019-05-10T15:44:38.665Z,2.12
2019-05-10T15:49:34.144Z,2.35
2019-05-10T15:54:27.637Z,2.10
2019-05-10T15:59:21.404Z,2.00
2019-05-10T16:04:15.289Z,3.33
2019-05-10T16:09:16.985Z,2.20
2019-05-10T16:14:06.904Z,2.17
2019-05-10T16:19:00.653Z,2.17
2019-05-10T16:23:54.467Z,2.50
2019-05-10T16:28:53.086Z,2.20
2019-05-10T16:33:43.252Z,2.00
2019-05-10T16:38:36.837Z,2.67
2019-05-10T16:43:30.317Z,2.00
2019-05-10T16:48:23.792Z,1.92
2019-05-10T16:53:17.288Z,2.03
2019-05-10T16:58:15.174Z,1.80
2019-05-10T17:03:06.312Z,1.80
2019-05-10T17:08:00.352Z,1.87
2019-05-10T17:12:53.936Z,2.22
2019-05-10T17:17:47.489Z,2.08
2019-05-10T17:22:41.221Z,2.33
2019-05-10T17:27:34.709Z,2.25
2019-05-10T17:32:30.640Z,2.00
2019-05-10T17:37:24.133Z,2.58
2019-05-10T17:42:17.679Z,1.95
2019-05-10T17:47:11.229Z,1.90
2019-05-10T17:52:04.803Z,2.50
2019-05-10T17:56:58.281Z,2.50
2019-05-10T18:01:51.848Z,2.83
